コモドロリバダビア の空港の天気 - METARとTAF

Comodoro Rivadavia Aerodrome ( SAVC / CRD ) - アルゼンチン チュブ州コモドロリバダビア
飛行場実況気象(Metar)
観測時間02/17 11:00 ART (02/17 14:00 UTC)
風向・風速北西 10m/s
視程10km以上
天気現象
なし
気温25℃
湿度34%
気圧1004hPa
METARSAVC 171400Z 32019KT CAVOK 25/08 Q1004
過去の天気等 Google飛行場航空写真 Wunderground天気予報

過去48時間のMETAR

飛行場予報(TAF)
発表時間: 2/17 08:00 ART (2/17 11:00 UTC)
予報対象時間: 17日9時 ART ~ 18日9時 ART
風向・風速西南西 5m/s
視程10km以上
なし
17日10時 ART ~ 17日12時 ART に徐々に
風向・風速西北西 13m/s 瞬間風速 21m/s
18日2時 ART ~ 18日4時 ART に 確率 40% で一時的に
風向・風速西 15m/s 瞬間風速 25m/s
TAF SAVC 171100Z 1712/1812 25010KT CAVOK TX34/1720Z TN20/1812Z
BECMG 1713/1715 29025G40KT
PROB40 TEMPO 1805/1807 27030G48KT